sensor_id;sensor_type;location;lat;lon;timestamp;temperature;humidity
66140;DHT22;52945;51.908;8.364;2022-11-18T00:00:12;10.70;78.20
66140;DHT22;52945;51.908;8.364;2022-11-18T00:03:13;10.70;78.10
66140;DHT22;52945;51.908;8.364;2022-11-18T00:06:19;10.70;78.00
66140;DHT22;52945;51.908;8.364;2022-11-18T00:09:19;10.60;78.00
66140;DHT22;52945;51.908;8.364;2022-11-18T00:12:20;10.60;78.20
66140;DHT22;52945;51.908;8.364;2022-11-18T00:15:39;10.60;78.20
66140;DHT22;52945;51.908;8.364;2022-11-18T00:18:40;10.60;78.20
66140;DHT22;52945;51.908;8.364;2022-11-18T00:21:41;10.60;78.20
66140;DHT22;52945;51.908;8.364;2022-11-18T00:24:42;10.60;78.20
66140;DHT22;52945;51.908;8.364;2022-11-18T00:27:42;10.60;78.10
66140;DHT22;52945;51.908;8.364;2022-11-18T00:30:43;10.60;78.10
66140;DHT22;52945;51.908;8.364;2022-11-18T00:33:43;10.60;78.10
66140;DHT22;52945;51.908;8.364;2022-11-18T00:36:45;10.60;78.10
66140;DHT22;52945;51.908;8.364;2022-11-18T00:39:46;10.60;78.00
66140;DHT22;52945;51.908;8.364;2022-11-18T00:42:46;10.50;78.00
66140;DHT22;52945;51.908;8.364;2022-11-18T00:45:53;10.50;78.10
66140;DHT22;52945;51.908;8.364;2022-11-18T00:48:53;10.50;78.10
66140;DHT22;52945;51.908;8.364;2022-11-18T00:51:54;10.50;78.10
66140;DHT22;52945;51.908;8.364;2022-11-18T00:54:54;10.50;78.20
66140;DHT22;52945;51.908;8.364;2022-11-18T00:57:55;10.40;78.30
66140;DHT22;52945;51.908;8.364;2022-11-18T01:00:55;10.50;78.30
66140;DHT22;52945;51.908;8.364;2022-11-18T01:03:56;10.50;78.30
66140;DHT22;52945;51.908;8.364;2022-11-18T01:06:57;10.40;78.30
66140;DHT22;52945;51.908;8.364;2022-11-18T01:09:57;10.40;78.20
66140;DHT22;52945;51.908;8.364;2022-11-18T01:12:58;10.40;78.30
66140;DHT22;52945;51.908;8.364;2022-11-18T01:16:22;10.40;78.20
66140;DHT22;52945;51.908;8.364;2022-11-18T01:19:24;10.40;78.20
66140;DHT22;52945;51.908;8.364;2022-11-18T01:22:24;10.40;78.10
66140;DHT22;52945;51.908;8.364;2022-11-18T01:25:26;10.30;78.10
66140;DHT22;52945;51.908;8.364;2022-11-18T01:28:26;10.40;78.10
66140;DHT22;52945;51.908;8.364;2022-11-18T01:31:27;10.30;78.00
66140;DHT22;52945;51.908;8.364;2022-11-18T01:34:28;10.30;77.90
66140;DHT22;52945;51.908;8.364;2022-11-18T01:37:28;10.30;77.80
66140;DHT22;52945;51.908;8.364;2022-11-18T01:40:30;10.20;77.80
66140;DHT22;52945;51.908;8.364;2022-11-18T01:46:52;10.20;77.80
66140;DHT22;52945;51.908;8.364;2022-11-18T01:49:52;10.20;77.70
66140;DHT22;52945;51.908;8.364;2022-11-18T01:52:56;10.20;77.60
66140;DHT22;52945;51.908;8.364;2022-11-18T01:56:01;10.20;77.60
66140;DHT22;52945;51.908;8.364;2022-11-18T01:59:08;10.20;77.40
66140;DHT22;52945;51.908;8.364;2022-11-18T02:02:11;10.20;77.30
66140;DHT22;52945;51.908;8.364;2022-11-18T02:05:13;10.10;77.20
66140;DHT22;52945;51.908;8.364;2022-11-18T02:08:16;10.10;77.20
66140;DHT22;52945;51.908;8.364;2022-11-18T02:11:18;10.10;77.30
66140;DHT22;52945;51.908;8.364;2022-11-18T02:14:41;10.10;77.40
66140;DHT22;52945;51.908;8.364;2022-11-18T02:20:47;10.00;77.50
66140;DHT22;52945;51.908;8.364;2022-11-18T02:31:02;10.00;77.70
66140;DHT22;52945;51.908;8.364;2022-11-18T02:34:27;9.90;77.70
66140;DHT22;52945;51.908;8.364;2022-11-18T02:37:34;9.90;77.70
66140;DHT22;52945;51.908;8.364;2022-11-18T02:40:40;9.90;77.50
66140;DHT22;52945;51.908;8.364;2022-11-18T02:43:48;9.80;77.40
66140;DHT22;52945;51.908;8.364;2022-11-18T02:46:56;9.80;77.60
66140;DHT22;52945;51.908;8.364;2022-11-18T02:50:00;9.80;77.60
66140;DHT22;52945;51.908;8.364;2022-11-18T02:53:04;9.70;77.50
66140;DHT22;52945;51.908;8.364;2022-11-18T02:56:07;9.70;77.40
66140;DHT22;52945;51.908;8.364;2022-11-18T02:59:08;9.70;77.30
66140;DHT22;52945;51.908;8.364;2022-11-18T03:02:15;9.70;77.20
66140;DHT22;52945;51.908;8.364;2022-11-18T03:05:22;9.70;77.20
66140;DHT22;52945;51.908;8.364;2022-11-18T03:08:24;9.70;77.20
66140;DHT22;52945;51.908;8.364;2022-11-18T03:11:39;9.60;77.20
66140;DHT22;52945;51.908;8.364;2022-11-18T03:17:59;9.60;77.20
66140;DHT22;52945;51.908;8.364;2022-11-18T03:21:08;9.60;77.20
66140;DHT22;52945;51.908;8.364;2022-11-18T03:27:27;9.60;77.00
66140;DHT22;52945;51.908;8.364;2022-11-18T03:30:31;9.50;77.10
66140;DHT22;52945;51.908;8.364;2022-11-18T03:33:58;9.50;77.00
66140;DHT22;52945;51.908;8.364;2022-11-18T03:37:00;9.50;77.20
66140;DHT22;52945;51.908;8.364;2022-11-18T03:40:33;9.50;77.20
66140;DHT22;52945;51.908;8.364;2022-11-18T03:43:40;9.50;77.20
66140;DHT22;52945;51.908;8.364;2022-11-18T03:46:51;9.50;77.20
66140;DHT22;52945;51.908;8.364;2022-11-18T03:50:00;9.40;77.10
66140;DHT22;52945;51.908;8.364;2022-11-18T03:53:05;9.40;76.90
66140;DHT22;52945;51.908;8.364;2022-11-18T03:56:14;9.40;77.00
66140;DHT22;52945;51.908;8.364;2022-11-18T04:02:43;9.30;76.90
66140;DHT22;52945;51.908;8.364;2022-11-18T04:05:46;9.30;76.90
66140;DHT22;52945;51.908;8.364;2022-11-18T04:08:53;9.30;77.10
66140;DHT22;52945;51.908;8.364;2022-11-18T04:12:01;9.30;77.30
66140;DHT22;52945;51.908;8.364;2022-11-18T04:15:02;9.20;77.40
66140;DHT22;52945;51.908;8.364;2022-11-18T04:18:03;9.20;77.40
66140;DHT22;52945;51.908;8.364;2022-11-18T04:21:04;9.30;77.30
66140;DHT22;52945;51.908;8.364;2022-11-18T04:24:05;9.30;77.30
66140;DHT22;52945;51.908;8.364;2022-11-18T04:27:06;9.20;77.40
66140;DHT22;52945;51.908;8.364;2022-11-18T04:30:07;9.20;77.60
66140;DHT22;52945;51.908;8.364;2022-11-18T04:33:08;9.30;77.70
66140;DHT22;52945;51.908;8.364;2022-11-18T04:36:09;9.30;77.80
66140;DHT22;52945;51.908;8.364;2022-11-18T04:39:09;9.30;77.80
66140;DHT22;52945;51.908;8.364;2022-11-18T04:42:10;9.30;77.80
66140;DHT22;52945;51.908;8.364;2022-11-18T04:45:11;9.20;77.90
66140;DHT22;52945;51.908;8.364;2022-11-18T04:48:11;9.30;78.00
66140;DHT22;52945;51.908;8.364;2022-11-18T04:51:12;9.30;78.20
66140;DHT22;52945;51.908;8.364;2022-11-18T04:54:13;9.30;78.30
66140;DHT22;52945;51.908;8.364;2022-11-18T04:57:14;9.20;78.30
66140;DHT22;52945;51.908;8.364;2022-11-18T05:00:15;9.40;78.30
66140;DHT22;52945;51.908;8.364;2022-11-18T05:03:15;9.30;78.20
66140;DHT22;52945;51.908;8.364;2022-11-18T05:06:16;9.30;78.20
66140;DHT22;52945;51.908;8.364;2022-11-18T05:09:17;9.30;78.00
66140;DHT22;52945;51.908;8.364;2022-11-18T05:12:18;9.30;78.00
66140;DHT22;52945;51.908;8.364;2022-11-18T05:15:37;9.30;77.90
66140;DHT22;52945;51.908;8.364;2022-11-18T05:18:38;9.30;77.80
66140;DHT22;52945;51.908;8.364;2022-11-18T05:21:38;9.20;77.60
66140;DHT22;52945;51.908;8.364;2022-11-18T05:24:39;9.30;77.50
66140;DHT22;52945;51.908;8.364;2022-11-18T05:27:39;9.20;77.30
66140;DHT22;52945;51.908;8.364;2022-11-18T05:30:40;9.20;77.20
66140;DHT22;52945;51.908;8.364;2022-11-18T05:33:41;9.20;77.20
66140;DHT22;52945;51.908;8.364;2022-11-18T05:36:42;9.20;77.10
66140;DHT22;52945;51.908;8.364;2022-11-18T05:39:42;9.20;76.90
66140;DHT22;52945;51.908;8.364;2022-11-18T05:42:43;9.20;76.80
66140;DHT22;52945;51.908;8.364;2022-11-18T05:46:03;9.10;76.70
66140;DHT22;52945;51.908;8.364;2022-11-18T05:49:03;9.10;76.70
66140;DHT22;52945;51.908;8.364;2022-11-18T05:52:04;9.10;76.60
66140;DHT22;52945;51.908;8.364;2022-11-18T05:55:05;9.10;76.50
66140;DHT22;52945;51.908;8.364;2022-11-18T05:58:06;9.10;76.60
66140;DHT22;52945;51.908;8.364;2022-11-18T06:01:07;9.00;76.60
66140;DHT22;52945;51.908;8.364;2022-11-18T06:07:28;9.00;76.70
66140;DHT22;52945;51.908;8.364;2022-11-18T06:10:33;8.90;76.70
66140;DHT22;52945;51.908;8.364;2022-11-18T06:13:41;8.90;76.80
66140;DHT22;52945;51.908;8.364;2022-11-18T06:16:51;8.90;76.90
66140;DHT22;52945;51.908;8.364;2022-11-18T06:19:54;8.90;77.00
66140;DHT22;52945;51.908;8.364;2022-11-18T06:22:56;8.90;77.00
66140;DHT22;52945;51.908;8.364;2022-11-18T06:25:57;8.90;77.20
66140;DHT22;52945;51.908;8.364;2022-11-18T06:28:58;8.90;77.30
66140;DHT22;52945;51.908;8.364;2022-11-18T06:31:58;8.90;77.30
66140;DHT22;52945;51.908;8.364;2022-11-18T06:34:59;8.90;77.20
66140;DHT22;52945;51.908;8.364;2022-11-18T06:38:00;8.90;77.30
66140;DHT22;52945;51.908;8.364;2022-11-18T06:41:00;8.90;77.50
66140;DHT22;52945;51.908;8.364;2022-11-18T06:44:01;8.90;77.60
66140;DHT22;52945;51.908;8.364;2022-11-18T06:47:03;8.90;77.70
66140;DHT22;52945;51.908;8.364;2022-11-18T06:50:04;8.90;77.80
66140;DHT22;52945;51.908;8.364;2022-11-18T06:53:05;8.90;77.80
66140;DHT22;52945;51.908;8.364;2022-11-18T06:56:11;9.00;78.00
66140;DHT22;52945;51.908;8.364;2022-11-18T06:59:12;9.00;78.20
66140;DHT22;52945;51.908;8.364;2022-11-18T07:02:13;9.00;78.30
66140;DHT22;52945;51.908;8.364;2022-11-18T07:05:13;9.00;78.50
66140;DHT22;52945;51.908;8.364;2022-11-18T07:08:14;9.00;78.70
66140;DHT22;52945;51.908;8.364;2022-11-18T07:11:17;9.00;78.80
66140;DHT22;52945;51.908;8.364;2022-11-18T07:14:18;9.00;79.00
66140;DHT22;52945;51.908;8.364;2022-11-18T07:17:18;9.10;79.10
66140;DHT22;52945;51.908;8.364;2022-11-18T07:20:19;9.10;79.20
66140;DHT22;52945;51.908;8.364;2022-11-18T07:23:20;9.10;79.30
66140;DHT22;52945;51.908;8.364;2022-11-18T07:26:20;9.10;79.30
66140;DHT22;52945;51.908;8.364;2022-11-18T07:29:21;9.10;79.30
66140;DHT22;52945;51.908;8.364;2022-11-18T07:32:21;9.10;79.30
66140;DHT22;52945;51.908;8.364;2022-11-18T07:35:22;9.20;79.20
66140;DHT22;52945;51.908;8.364;2022-11-18T07:38:22;9.10;79.30
66140;DHT22;52945;51.908;8.364;2022-11-18T07:41:25;9.20;79.30
66140;DHT22;52945;51.908;8.364;2022-11-18T07:44:26;9.20;79.40
66140;DHT22;52945;51.908;8.364;2022-11-18T07:47:26;9.20;79.50
66140;DHT22;52945;51.908;8.364;2022-11-18T07:50:27;9.30;79.60
66140;DHT22;52945;51.908;8.364;2022-11-18T07:53:31;9.30;79.70
66140;DHT22;52945;51.908;8.364;2022-11-18T07:56:32;9.40;79.70
66140;DHT22;52945;51.908;8.364;2022-11-18T07:59:33;9.30;79.70
66140;DHT22;52945;51.908;8.364;2022-11-18T08:02:33;9.40;79.80
66140;DHT22;52945;51.908;8.364;2022-11-18T08:05:34;9.40;79.80
66140;DHT22;52945;51.908;8.364;2022-11-18T08:08:35;9.50;79.90
66140;DHT22;52945;51.908;8.364;2022-11-18T08:11:36;9.50;80.10
66140;DHT22;52945;51.908;8.364;2022-11-18T08:14:36;9.50;80.10
66140;DHT22;52945;51.908;8.364;2022-11-18T08:17:37;9.60;80.30
66140;DHT22;52945;51.908;8.364;2022-11-18T08:20:38;9.60;80.30
66140;DHT22;52945;51.908;8.364;2022-11-18T08:23:38;9.60;80.30
66140;DHT22;52945;51.908;8.364;2022-11-18T08:26:39;9.60;80.20
66140;DHT22;52945;51.908;8.364;2022-11-18T08:29:40;9.60;80.20
66140;DHT22;52945;51.908;8.364;2022-11-18T08:32:40;9.60;80.10
66140;DHT22;52945;51.908;8.364;2022-11-18T08:35:41;9.60;80.00
66140;DHT22;52945;51.908;8.364;2022-11-18T08:38:41;9.70;80.00
66140;DHT22;52945;51.908;8.364;2022-11-18T08:41:42;9.70;79.90
66140;DHT22;52945;51.908;8.364;2022-11-18T08:44:43;9.70;79.80
66140;DHT22;52945;51.908;8.364;2022-11-18T08:47:44;9.70;79.80
66140;DHT22;52945;51.908;8.364;2022-11-18T08:50:44;9.70;79.80
66140;DHT22;52945;51.908;8.364;2022-11-18T08:53:45;9.70;79.80
66140;DHT22;52945;51.908;8.364;2022-11-18T08:56:46;9.80;79.80
66140;DHT22;52945;51.908;8.364;2022-11-18T08:59:46;9.70;79.70
66140;DHT22;52945;51.908;8.364;2022-11-18T09:02:47;9.80;79.90
66140;DHT22;52945;51.908;8.364;2022-11-18T09:05:47;9.80;79.90
66140;DHT22;52945;51.908;8.364;2022-11-18T09:08:48;9.90;80.00
66140;DHT22;52945;51.908;8.364;2022-11-18T09:11:49;9.90;80.10
66140;DHT22;52945;51.908;8.364;2022-11-18T09:14:49;10.00;80.10
66140;DHT22;52945;51.908;8.364;2022-11-18T09:17:50;10.00;80.20
66140;DHT22;52945;51.908;8.364;2022-11-18T09:21:01;10.10;80.40
66140;DHT22;52945;51.908;8.364;2022-11-18T09:24:03;10.10;80.40
66140;DHT22;52945;51.908;8.364;2022-11-18T09:27:05;10.10;80.50
66140;DHT22;52945;51.908;8.364;2022-11-18T09:30:06;10.10;80.60
66140;DHT22;52945;51.908;8.364;2022-11-18T09:33:07;10.20;80.60
66140;DHT22;52945;51.908;8.364;2022-11-18T09:39:13;10.20;80.80
66140;DHT22;52945;51.908;8.364;2022-11-18T09:42:35;10.30;80.90
66140;DHT22;52945;51.908;8.364;2022-11-18T09:45:42;10.30;80.90
66140;DHT22;52945;51.908;8.364;2022-11-18T09:48:43;10.30;80.90
66140;DHT22;52945;51.908;8.364;2022-11-18T09:52:09;10.40;80.90
66140;DHT22;52945;51.908;8.364;2022-11-18T09:55:14;10.40;80.90
66140;DHT22;52945;51.908;8.364;2022-11-18T09:58:34;10.40;80.80
66140;DHT22;52945;51.908;8.364;2022-11-18T10:01:35;10.50;80.70
66140;DHT22;52945;51.908;8.364;2022-11-18T10:04:36;10.50;80.70
66140;DHT22;52945;51.908;8.364;2022-11-18T10:11:14;10.50;80.60
66140;DHT22;52945;51.908;8.364;2022-11-18T10:14:56;10.60;80.50
66140;DHT22;52945;51.908;8.364;2022-11-18T10:24:57;10.60;80.40
66140;DHT22;52945;51.908;8.364;2022-11-18T10:28:29;10.60;80.30
66140;DHT22;52945;51.908;8.364;2022-11-18T10:31:30;10.60;80.20
66140;DHT22;52945;51.908;8.364;2022-11-18T10:34:32;10.60;80.10
66140;DHT22;52945;51.908;8.364;2022-11-18T10:37:34;10.60;80.00
66140;DHT22;52945;51.908;8.364;2022-11-18T10:40:37;10.60;79.90
66140;DHT22;52945;51.908;8.364;2022-11-18T10:43:51;10.70;79.80
66140;DHT22;52945;51.908;8.364;2022-11-18T10:46:52;10.70;79.80
66140;DHT22;52945;51.908;8.364;2022-11-18T10:49:58;10.70;79.70
66140;DHT22;52945;51.908;8.364;2022-11-18T10:53:00;10.70;79.70
66140;DHT22;52945;51.908;8.364;2022-11-18T10:56:12;10.70;79.60
66140;DHT22;52945;51.908;8.364;2022-11-18T10:59:29;10.80;79.50
66140;DHT22;52945;51.908;8.364;2022-11-18T11:02:38;10.80;79.50
66140;DHT22;52945;51.908;8.364;2022-11-18T11:05:39;10.80;79.40
66140;DHT22;52945;51.908;8.364;2022-11-18T11:08:47;10.70;79.20
66140;DHT22;52945;51.908;8.364;2022-11-18T11:12:01;10.70;79.20
66140;DHT22;52945;51.908;8.364;2022-11-18T11:15:05;10.70;79.10
66140;DHT22;52945;51.908;8.364;2022-11-18T11:18:19;10.70;78.90
66140;DHT22;52945;51.908;8.364;2022-11-18T11:21:39;10.80;78.90
66140;DHT22;52945;51.908;8.364;2022-11-18T11:24:40;10.80;78.80
66140;DHT22;52945;51.908;8.364;2022-11-18T11:28:13;10.80;78.70
66140;DHT22;52945;51.908;8.364;2022-11-18T11:31:25;10.70;78.70
66140;DHT22;52945;51.908;8.364;2022-11-18T11:34:35;10.80;78.70
66140;DHT22;52945;51.908;8.364;2022-11-18T11:37:49;10.80;78.60
66140;DHT22;52945;51.908;8.364;2022-11-18T11:41:13;10.80;78.60
66140;DHT22;52945;51.908;8.364;2022-11-18T11:44:28;10.70;78.30
66140;DHT22;52945;51.908;8.364;2022-11-18T11:47:53;10.70;78.40
66140;DHT22;52945;51.908;8.364;2022-11-18T11:54:23;10.70;78.10
66140;DHT22;52945;51.908;8.364;2022-11-18T12:01:04;10.70;78.00
66140;DHT22;52945;51.908;8.364;2022-11-18T12:07:28;10.70;78.00
66140;DHT22;52945;51.908;8.364;2022-11-18T12:14:24;10.70;77.80
66140;DHT22;52945;51.908;8.364;2022-11-18T12:17:57;10.70;77.70
66140;DHT22;52945;51.908;8.364;2022-11-18T12:21:02;10.70;77.60
66140;DHT22;52945;51.908;8.364;2022-11-18T12:30:29;10.60;77.50
66140;DHT22;52945;51.908;8.364;2022-11-18T12:33:30;10.60;77.30
66140;DHT22;52945;51.908;8.364;2022-11-18T12:36:38;10.60;77.40
66140;DHT22;52945;51.908;8.364;2022-11-18T12:45:59;10.50;77.50
66140;DHT22;52945;51.908;8.364;2022-11-18T12:55:40;10.30;77.70
66140;DHT22;52945;51.908;8.364;2022-11-18T12:58:44;10.30;77.80
66140;DHT22;52945;51.908;8.364;2022-11-18T13:01:45;10.20;77.90
66140;DHT22;52945;51.908;8.364;2022-11-18T13:05:11;10.20;78.10
66140;DHT22;52945;51.908;8.364;2022-11-18T13:08:12;10.20;78.10
66140;DHT22;52945;51.908;8.364;2022-11-18T13:11:17;10.20;78.10
66140;DHT22;52945;51.908;8.364;2022-11-18T13:14:41;10.20;78.10
66140;DHT22;52945;51.908;8.364;2022-11-18T13:18:16;10.10;78.20
66140;DHT22;52945;51.908;8.364;2022-11-18T13:21:26;10.10;78.20
66140;DHT22;52945;51.908;8.364;2022-11-18T13:24:48;10.10;78.30
66140;DHT22;52945;51.908;8.364;2022-11-18T13:28:13;10.00;78.10
66140;DHT22;52945;51.908;8.364;2022-11-18T13:31:22;10.00;78.40
66140;DHT22;52945;51.908;8.364;2022-11-18T13:34:26;9.90;78.10
66140;DHT22;52945;51.908;8.364;2022-11-18T13:37:30;9.90;78.40
66140;DHT22;52945;51.908;8.364;2022-11-18T13:40:44;9.80;78.20
66140;DHT22;52945;51.908;8.364;2022-11-18T13:44:24;9.70;78.40
66140;DHT22;52945;51.908;8.364;2022-11-18T13:50:48;9.70;78.10
66140;DHT22;52945;51.908;8.364;2022-11-18T13:53:51;9.60;78.00
66140;DHT22;52945;51.908;8.364;2022-11-18T13:56:52;9.60;78.00
66140;DHT22;52945;51.908;8.364;2022-11-18T13:59:54;9.60;77.90
66140;DHT22;52945;51.908;8.364;2022-11-18T14:03:25;9.50;78.00
66140;DHT22;52945;51.908;8.364;2022-11-18T14:06:35;9.50;78.10
66140;DHT22;52945;51.908;8.364;2022-11-18T14:09:36;9.40;78.10
66140;DHT22;52945;51.908;8.364;2022-11-18T14:12:36;9.40;78.20
66140;DHT22;52945;51.908;8.364;2022-11-18T14:15:37;9.40;78.20
66140;DHT22;52945;51.908;8.364;2022-11-18T14:18:44;9.40;77.90
66140;DHT22;52945;51.908;8.364;2022-11-18T14:21:46;9.30;77.80
66140;DHT22;52945;51.908;8.364;2022-11-18T14:25:01;9.30;78.00
66140;DHT22;52945;51.908;8.364;2022-11-18T14:28:23;9.20;78.10
66140;DHT22;52945;51.908;8.364;2022-11-18T14:31:29;9.20;78.30
66140;DHT22;52945;51.908;8.364;2022-11-18T14:34:30;9.20;78.40
66140;DHT22;52945;51.908;8.364;2022-11-18T14:37:31;9.10;78.30
66140;DHT22;52945;51.908;8.364;2022-11-18T14:40:31;9.10;78.30
66140;DHT22;52945;51.908;8.364;2022-11-18T14:43:32;9.10;78.40
66140;DHT22;52945;51.908;8.364;2022-11-18T14:46:33;9.10;78.50
66140;DHT22;52945;51.908;8.364;2022-11-18T14:49:36;9.10;78.70
66140;DHT22;52945;51.908;8.364;2022-11-18T14:52:37;9.10;78.60
66140;DHT22;52945;51.908;8.364;2022-11-18T14:55:37;9.10;78.70
66140;DHT22;52945;51.908;8.364;2022-11-18T14:58:38;9.00;78.70
66140;DHT22;52945;51.908;8.364;2022-11-18T15:01:39;9.10;78.50
66140;DHT22;52945;51.908;8.364;2022-11-18T15:04:40;9.00;78.50
66140;DHT22;52945;51.908;8.364;2022-11-18T15:07:41;8.90;78.50
66140;DHT22;52945;51.908;8.364;2022-11-18T15:10:41;8.80;78.40
66140;DHT22;52945;51.908;8.364;2022-11-18T15:13:42;8.80;78.30
66140;DHT22;52945;51.908;8.364;2022-11-18T15:16:43;8.80;78.30
66140;DHT22;52945;51.908;8.364;2022-11-18T15:19:43;8.70;78.30
66140;DHT22;52945;51.908;8.364;2022-11-18T15:22:44;8.70;78.00
66140;DHT22;52945;51.908;8.364;2022-11-18T15:25:44;8.60;78.00
66140;DHT22;52945;51.908;8.364;2022-11-18T15:28:47;8.60;78.00
66140;DHT22;52945;51.908;8.364;2022-11-18T15:31:48;8.60;78.20
66140;DHT22;52945;51.908;8.364;2022-11-18T15:34:48;8.50;78.30
66140;DHT22;52945;51.908;8.364;2022-11-18T15:37:49;8.50;78.40
66140;DHT22;52945;51.908;8.364;2022-11-18T15:40:49;8.40;77.70
66140;DHT22;52945;51.908;8.364;2022-11-18T15:43:51;8.40;78.10
66140;DHT22;52945;51.908;8.364;2022-11-18T15:46:52;8.30;78.40
66140;DHT22;52945;51.908;8.364;2022-11-18T15:49:53;8.20;78.50
66140;DHT22;52945;51.908;8.364;2022-11-18T15:52:53;8.20;78.60
66140;DHT22;52945;51.908;8.364;2022-11-18T15:59:23;8.10;78.20
66140;DHT22;52945;51.908;8.364;2022-11-18T16:02:24;8.10;78.10
66140;DHT22;52945;51.908;8.364;2022-11-18T16:05:25;8.10;78.10
66140;DHT22;52945;51.908;8.364;2022-11-18T16:08:25;8.00;78.00
66140;DHT22;52945;51.908;8.364;2022-11-18T16:11:27;8.00;77.80
66140;DHT22;52945;51.908;8.364;2022-11-18T16:14:47;7.90;78.00
66140;DHT22;52945;51.908;8.364;2022-11-18T16:18:07;7.90;77.90
66140;DHT22;52945;51.908;8.364;2022-11-18T16:21:08;7.80;78.20
66140;DHT22;52945;51.908;8.364;2022-11-18T16:24:14;7.70;78.20
66140;DHT22;52945;51.908;8.364;2022-11-18T16:27:15;7.70;78.60
66140;DHT22;52945;51.908;8.364;2022-11-18T16:30:16;7.70;78.30
66140;DHT22;52945;51.908;8.364;2022-11-18T16:33:35;7.70;78.00
66140;DHT22;52945;51.908;8.364;2022-11-18T16:36:36;7.60;78.20
66140;DHT22;52945;51.908;8.364;2022-11-18T16:39:37;7.60;77.90
66140;DHT22;52945;51.908;8.364;2022-11-18T16:42:38;7.60;78.40
66140;DHT22;52945;51.908;8.364;2022-11-18T16:45:38;7.60;78.40
66140;DHT22;52945;51.908;8.364;2022-11-18T16:48:39;7.60;78.20
66140;DHT22;52945;51.908;8.364;2022-11-18T16:51:41;7.60;78.20
66140;DHT22;52945;51.908;8.364;2022-11-18T16:54:42;7.50;78.30
66140;DHT22;52945;51.908;8.364;2022-11-18T16:57:42;7.50;78.60
66140;DHT22;52945;51.908;8.364;2022-11-18T17:00:43;7.50;78.20
66140;DHT22;52945;51.908;8.364;2022-11-18T17:03:44;7.50;78.30
66140;DHT22;52945;51.908;8.364;2022-11-18T17:06:44;7.50;78.70
66140;DHT22;52945;51.908;8.364;2022-11-18T17:09:48;7.40;78.60
66140;DHT22;52945;51.908;8.364;2022-11-18T17:12:48;7.40;78.30
66140;DHT22;52945;51.908;8.364;2022-11-18T17:15:49;7.40;78.30
66140;DHT22;52945;51.908;8.364;2022-11-18T17:18:57;7.40;78.50
66140;DHT22;52945;51.908;8.364;2022-11-18T17:21:59;7.40;78.30
66140;DHT22;52945;51.908;8.364;2022-11-18T17:24:59;7.30;78.40
66140;DHT22;52945;51.908;8.364;2022-11-18T17:28:00;7.30;78.10
66140;DHT22;52945;51.908;8.364;2022-11-18T17:31:08;7.20;78.10
66140;DHT22;52945;51.908;8.364;2022-11-18T17:34:10;7.20;77.70
66140;DHT22;52945;51.908;8.364;2022-11-18T17:37:11;7.10;77.90
66140;DHT22;52945;51.908;8.364;2022-11-18T17:40:12;7.10;77.70
66140;DHT22;52945;51.908;8.364;2022-11-18T17:43:14;7.10;78.00
66140;DHT22;52945;51.908;8.364;2022-11-18T17:46:15;7.00;78.20
66140;DHT22;52945;51.908;8.364;2022-11-18T17:49:16;6.90;77.90
66140;DHT22;52945;51.908;8.364;2022-11-18T17:52:17;6.90;78.00
66140;DHT22;52945;51.908;8.364;2022-11-18T17:55:18;6.80;77.70
66140;DHT22;52945;51.908;8.364;2022-11-18T17:58:19;6.80;77.70
66140;DHT22;52945;51.908;8.364;2022-11-18T18:01:20;6.70;78.60
66140;DHT22;52945;51.908;8.364;2022-11-18T18:04:21;6.70;78.40
66140;DHT22;52945;51.908;8.364;2022-11-18T18:07:22;6.70;77.60
66140;DHT22;52945;51.908;8.364;2022-11-18T18:10:24;6.60;77.80
66140;DHT22;52945;51.908;8.364;2022-11-18T18:13:24;6.70;77.90
66140;DHT22;52945;51.908;8.364;2022-11-18T18:16:44;6.60;77.80
66140;DHT22;52945;51.908;8.364;2022-11-18T18:19:45;6.60;78.10
66140;DHT22;52945;51.908;8.364;2022-11-18T18:22:46;6.60;78.10
66140;DHT22;52945;51.908;8.364;2022-11-18T18:25:46;6.60;78.20
66140;DHT22;52945;51.908;8.364;2022-11-18T18:28:47;6.50;77.80
66140;DHT22;52945;51.908;8.364;2022-11-18T18:31:47;6.50;77.60
66140;DHT22;52945;51.908;8.364;2022-11-18T18:34:48;6.50;77.90
66140;DHT22;52945;51.908;8.364;2022-11-18T18:37:49;6.50;77.70
66140;DHT22;52945;51.908;8.364;2022-11-18T18:40:49;6.40;77.70
66140;DHT22;52945;51.908;8.364;2022-11-18T18:43:50;6.30;77.90
66140;DHT22;52945;51.908;8.364;2022-11-18T18:46:50;6.30;77.70
66140;DHT22;52945;51.908;8.364;2022-11-18T18:49:51;6.30;77.80
66140;DHT22;52945;51.908;8.364;2022-11-18T18:52:51;6.20;78.30
66140;DHT22;52945;51.908;8.364;2022-11-18T18:55:55;6.20;78.00
66140;DHT22;52945;51.908;8.364;2022-11-18T18:58:56;6.20;78.00
66140;DHT22;52945;51.908;8.364;2022-11-18T19:01:57;6.20;77.90
66140;DHT22;52945;51.908;8.364;2022-11-18T19:04:57;6.20;78.20
66140;DHT22;52945;51.908;8.364;2022-11-18T19:07:59;6.20;78.10
66140;DHT22;52945;51.908;8.364;2022-11-18T19:11:04;6.10;78.10
66140;DHT22;52945;51.908;8.364;2022-11-18T19:14:08;6.10;77.90
66140;DHT22;52945;51.908;8.364;2022-11-18T19:17:09;6.00;78.10
66140;DHT22;52945;51.908;8.364;2022-11-18T19:20:11;6.00;78.10
66140;DHT22;52945;51.908;8.364;2022-11-18T19:23:30;6.00;77.90
66140;DHT22;52945;51.908;8.364;2022-11-18T19:26:31;5.90;78.10
66140;DHT22;52945;51.908;8.364;2022-11-18T19:29:32;5.90;78.10
66140;DHT22;52945;51.908;8.364;2022-11-18T19:32:37;5.90;77.80
66140;DHT22;52945;51.908;8.364;2022-11-18T19:35:37;5.90;78.10
66140;DHT22;52945;51.908;8.364;2022-11-18T19:38:38;5.80;77.90
66140;DHT22;52945;51.908;8.364;2022-11-18T19:41:39;5.80;77.90
66140;DHT22;52945;51.908;8.364;2022-11-18T19:44:39;5.80;78.10
66140;DHT22;52945;51.908;8.364;2022-11-18T19:47:40;5.70;77.90
66140;DHT22;52945;51.908;8.364;2022-11-18T19:50:40;5.70;78.00
66140;DHT22;52945;51.908;8.364;2022-11-18T19:53:41;5.60;77.60
66140;DHT22;52945;51.908;8.364;2022-11-18T19:56:42;5.60;77.90
66140;DHT22;52945;51.908;8.364;2022-11-18T19:59:42;5.60;78.10
66140;DHT22;52945;51.908;8.364;2022-11-18T20:02:43;5.60;77.90
66140;DHT22;52945;51.908;8.364;2022-11-18T20:05:44;5.50;77.80
66140;DHT22;52945;51.908;8.364;2022-11-18T20:08:54;5.50;77.70
66140;DHT22;52945;51.908;8.364;2022-11-18T20:11:55;5.50;77.60
66140;DHT22;52945;51.908;8.364;2022-11-18T20:14:56;5.50;77.70
66140;DHT22;52945;51.908;8.364;2022-11-18T20:17:56;5.60;78.00
66140;DHT22;52945;51.908;8.364;2022-11-18T20:21:02;5.50;78.20
66140;DHT22;52945;51.908;8.364;2022-11-18T20:24:04;5.50;78.00
66140;DHT22;52945;51.908;8.364;2022-11-18T20:27:05;5.50;77.80
66140;DHT22;52945;51.908;8.364;2022-11-18T20:30:06;5.50;78.10
66140;DHT22;52945;51.908;8.364;2022-11-18T20:33:06;5.40;78.00
66140;DHT22;52945;51.908;8.364;2022-11-18T20:36:13;5.40;78.00
66140;DHT22;52945;51.908;8.364;2022-11-18T20:39:14;5.40;78.20
66140;DHT22;52945;51.908;8.364;2022-11-18T20:42:15;5.40;77.90
66140;DHT22;52945;51.908;8.364;2022-11-18T20:45:34;5.30;78.20
66140;DHT22;52945;51.908;8.364;2022-11-18T20:48:35;5.30;78.10
66140;DHT22;52945;51.908;8.364;2022-11-18T20:51:36;5.30;78.10
66140;DHT22;52945;51.908;8.364;2022-11-18T20:54:37;5.20;78.10
66140;DHT22;52945;51.908;8.364;2022-11-18T20:57:37;5.20;77.80